Terminal Aerodrome Forecast
Issued by NWS Wilmington, OH

Current Version | Previous Version | Text Only | Print | Product List | Glossary Off
Versions: 1 2 3 4 5 6 7 8 9 10 11 12 13 14 15 16 17 18 19 20

000
FTUS41 KILN 252000 AAB
TAFDAY
TAF AMD
KDAY 252008Z 2520/2618 05010G20KT 2SM RA BR OVC012
     FM252100 05010G20KT 4SM -SHRA BR SCT009 OVC012
     FM260000 05013KT P6SM SCT009 OVC012
     FM260500 04013KT P6SM BKN040
     FM261300 01013KT P6SM FEW040=

USA.gov is the U.S. government's official web portal to all federal, state and local government web resources and services.